Terminal Aerodrome Forecast
Issued by NWS Quad Cities IA IL

Home | Current Version | Previous Version | Text Only | Print | Product List | Glossary On
Versions: 1 2 3 4 5 6 7 8 9 10 11 12 13 14 15 16 17 18 19 20 21 22 23 24 25 26
599
FTUS43 KDVN 241928 AAC
TAFDBQ
TAF AMD
KDBQ 241928Z 2419/2518 36014G20KT 2SM -FZDZ OVC008
     FM242300 34014G22KT 2SM -SN BR OVC005
     FM251000 32015G25KT 4SM -SN BR OVC010
     FM251200 30015G29KT 6SM BR BKN020=

USA.gov is the U.S. government's official web portal to all federal, state and local government web resources and services.